createdAt,value
2019-01-26T00:00:30.357Z,380
2019-01-26T00:01:37.570Z,381
2019-01-26T00:02:44.493Z,380
2019-01-26T00:03:51.694Z,380
2019-01-26T00:04:58.619Z,380
2019-01-26T00:06:05.537Z,380
2019-01-26T00:07:12.733Z,380
2019-01-26T00:08:19.937Z,380
2019-01-26T00:09:26.869Z,380
2019-01-26T00:10:34.059Z,380
2019-01-26T00:11:40.974Z,380
2019-01-26T00:12:47.898Z,380
2019-01-26T00:13:55.094Z,380
2019-01-26T00:15:02.302Z,379
2019-01-26T00:16:09.221Z,379
2019-01-26T00:17:16.418Z,380
2019-01-26T00:18:23.080Z,379
2019-01-26T00:19:30.296Z,380
2019-01-26T00:20:37.670Z,379
2019-01-26T00:21:44.879Z,379
2019-01-26T00:22:52.081Z,379
2019-01-26T00:23:59.288Z,379
2019-01-26T00:25:06.481Z,379
2019-01-26T00:26:13.689Z,380
2019-01-26T00:27:20.611Z,378
2019-01-26T00:28:27.809Z,379
2019-01-26T00:29:35.012Z,379
2019-01-26T00:30:41.943Z,378
2019-01-26T00:31:49.140Z,379
2019-01-26T00:32:56.353Z,378
2019-01-26T00:34:03.549Z,379
2019-01-26T00:35:10.471Z,379
2019-01-26T00:36:17.663Z,379
2019-01-26T00:37:24.874Z,378
2019-01-26T00:38:32.074Z,379
2019-01-26T00:39:39.285Z,378
2019-01-26T00:40:46.211Z,379
2019-01-26T00:41:53.419Z,378
2019-01-26T00:43:00.618Z,378
2019-01-26T00:44:07.819Z,379
2019-01-26T00:45:14.767Z,379
2019-01-26T00:46:28.952Z,378
2019-01-26T00:47:35.610Z,378
2019-01-26T00:48:42.543Z,379
2019-01-26T00:49:49.478Z,378
2019-01-26T00:50:56.673Z,377
2019-01-26T00:52:03.872Z,378
2019-01-26T00:53:11.074Z,378
2019-01-26T00:54:18.003Z,378
2019-01-26T00:55:25.212Z,378
2019-01-26T00:56:32.408Z,378
2019-01-26T00:57:39.617Z,378
2019-01-26T00:58:46.819Z,378
2019-01-26T00:59:54.030Z,377
2019-01-26T01:01:01.229Z,377
2019-01-26T01:02:08.434Z,378
2019-01-26T01:03:15.357Z,378
2019-01-26T01:04:22.556Z,377
2019-01-26T01:05:29.483Z,378
2019-01-26T01:06:36.693Z,377
2019-01-26T01:07:44.003Z,377
2019-01-26T01:08:51.209Z,378
2019-01-26T01:09:58.139Z,378
2019-01-26T01:11:05.334Z,377
2019-01-26T01:12:12.536Z,377
2019-01-26T01:13:19.738Z,377
2019-01-26T01:14:26.951Z,378
2019-01-26T01:15:33.874Z,377
2019-01-26T01:16:40.798Z,378
2019-01-26T01:17:47.720Z,377
2019-01-26T01:18:54.789Z,377
2019-01-26T01:20:02.079Z,377
2019-01-26T01:21:09.290Z,376
2019-01-26T01:22:16.225Z,377
2019-01-26T01:23:23.420Z,377
2019-01-26T01:24:30.632Z,377
2019-01-26T01:25:37.837Z,376
2019-01-26T01:26:45.039Z,376
2019-01-26T01:27:51.998Z,376
2019-01-26T01:28:59.190Z,377
2019-01-26T01:30:06.385Z,377
2019-01-26T01:31:13.587Z,376
2019-01-26T01:32:20.509Z,376
2019-01-26T01:33:27.708Z,376
2019-01-26T01:34:34.924Z,376
2019-01-26T01:35:42.130Z,376
2019-01-26T01:36:49.053Z,376
2019-01-26T01:37:56.245Z,376
2019-01-26T01:39:03.450Z,376
2019-01-26T01:40:10.654Z,376
2019-01-26T01:41:17.856Z,376
2019-01-26T01:42:24.773Z,376
2019-01-26T01:43:31.965Z,375
2019-01-26T01:44:39.162Z,376
2019-01-26T01:45:46.374Z,376
2019-01-26T01:46:53.591Z,376
2019-01-26T01:48:00.539Z,376
2019-01-26T01:49:07.760Z,375
2019-01-26T01:50:14.957Z,376
2019-01-26T01:51:22.159Z,376
2019-01-26T01:52:29.118Z,375
2019-01-26T01:53:36.352Z,376
2019-01-26T01:54:43.557Z,375
2019-01-26T01:55:50.760Z,375
2019-01-26T01:56:57.970Z,375
2019-01-26T01:58:05.170Z,375
2019-01-26T01:59:12.090Z,375
2019-01-26T02:00:19.031Z,376
2019-01-26T02:01:26.228Z,375
2019-01-26T02:02:33.448Z,375
2019-01-26T02:03:40.369Z,375
2019-01-26T02:04:47.298Z,374
2019-01-26T02:05:54.492Z,375
2019-01-26T02:07:01.703Z,374
2019-01-26T02:08:08.899Z,375
2019-01-26T02:09:15.538Z,375
2019-01-26T02:10:22.191Z,375
2019-01-26T02:11:29.111Z,375
2019-01-26T02:12:36.322Z,375
2019-01-26T02:13:43.518Z,374
2019-01-26T02:14:50.470Z,374
2019-01-26T02:15:57.391Z,374
2019-01-26T02:17:04.602Z,375
2019-01-26T02:18:11.813Z,374
2019-01-26T02:19:19.013Z,375
2019-01-26T02:20:26.216Z,374
2019-01-26T02:21:33.430Z,374
2019-01-26T02:22:40.628Z,375
2019-01-26T02:23:47.831Z,374
2019-01-26T02:24:55.028Z,374
2019-01-26T02:26:02.473Z,374
2019-01-26T02:27:09.539Z,374
2019-01-26T02:28:16.747Z,373
2019-01-26T02:29:23.670Z,374
2019-01-26T02:30:30.884Z,374
2019-01-26T02:31:37.800Z,373
2019-01-26T02:32:44.995Z,373
2019-01-26T02:33:52.195Z,373
2019-01-26T02:34:59.698Z,374
2019-01-26T02:36:06.770Z,373
2019-01-26T02:37:13.997Z,373
2019-01-26T02:38:20.974Z,374
2019-01-26T02:39:28.175Z,373
2019-01-26T02:40:35.100Z,373
2019-01-26T02:41:42.531Z,373
2019-01-26T02:42:49.735Z,372
2019-01-26T02:43:57.154Z,373
2019-01-26T02:45:04.079Z,373
2019-01-26T02:46:11.287Z,373
2019-01-26T02:47:18.483Z,372
2019-01-26T02:48:25.689Z,373
2019-01-26T02:49:32.621Z,373
2019-01-26T02:50:39.828Z,373
2019-01-26T02:51:47.026Z,373
2019-01-26T02:52:54.235Z,372
2019-01-26T02:54:01.440Z,373
2019-01-26T02:55:08.664Z,373
2019-01-26T02:56:15.861Z,372
2019-01-26T02:57:23.065Z,372
2019-01-26T02:58:30.264Z,372
2019-01-26T02:59:37.488Z,373
2019-01-26T03:00:44.684Z,373
2019-01-26T03:01:51.891Z,372
2019-01-26T03:02:58.820Z,372
2019-01-26T03:04:05.778Z,372
2019-01-26T03:05:12.971Z,371
2019-01-26T03:06:20.174Z,372
2019-01-26T03:07:27.368Z,372
2019-01-26T03:08:34.577Z,371
2019-01-26T03:09:41.786Z,372
2019-01-26T03:10:48.976Z,372
2019-01-26T03:11:56.179Z,371
2019-01-26T03:13:03.397Z,372
2019-01-26T03:14:10.327Z,371
2019-01-26T03:15:17.523Z,371
2019-01-26T03:16:24.159Z,371
2019-01-26T03:17:31.356Z,371
2019-01-26T03:18:38.295Z,372
2019-01-26T03:19:45.234Z,370
2019-01-26T03:20:52.445Z,370
2019-01-26T03:21:59.683Z,371
2019-01-26T03:23:06.874Z,371
2019-01-26T03:24:13.803Z,371
2019-01-26T03:25:21.002Z,371
2019-01-26T03:26:27.939Z,371
2019-01-26T03:27:34.875Z,370
2019-01-26T03:28:42.080Z,371
2019-01-26T03:29:49.281Z,371
2019-01-26T03:30:56.516Z,370
2019-01-26T03:32:03.709Z,370
2019-01-26T03:33:10.697Z,370
2019-01-26T03:34:17.624Z,370
2019-01-26T03:35:24.824Z,371
2019-01-26T03:36:31.744Z,369
2019-01-26T03:37:38.950Z,370
2019-01-26T03:38:46.170Z,369
2019-01-26T03:39:53.371Z,369
2019-01-26T03:41:00.579Z,370
2019-01-26T03:42:07.802Z,369
2019-01-26T03:43:14.730Z,369
2019-01-26T03:44:21.947Z,369
2019-01-26T03:45:29.156Z,370
2019-01-26T03:46:36.071Z,369
2019-01-26T03:47:43.264Z,369
2019-01-26T03:48:50.189Z,369
2019-01-26T03:49:57.110Z,369
2019-01-26T03:51:04.033Z,368
2019-01-26T03:52:11.228Z,369
2019-01-26T03:53:18.442Z,368
2019-01-26T03:54:25.650Z,369
2019-01-26T03:55:32.867Z,368
2019-01-26T03:56:40.064Z,369
2019-01-26T03:57:47.270Z,369
2019-01-26T03:58:54.192Z,368
2019-01-26T04:00:01.460Z,368
2019-01-26T04:01:08.664Z,368
2019-01-26T04:02:15.877Z,368
2019-01-26T04:03:22.809Z,368
2019-01-26T04:04:30.050Z,368
2019-01-26T04:05:37.249Z,368
2019-01-26T04:06:44.679Z,368
2019-01-26T04:07:51.608Z,367
2019-01-26T04:08:58.815Z,368
2019-01-26T04:10:06.011Z,368
2019-01-26T04:11:13.215Z,368
2019-01-26T04:12:20.412Z,368
2019-01-26T04:13:27.617Z,367
2019-01-26T04:14:34.815Z,367
2019-01-26T04:15:42.039Z,367
2019-01-26T04:16:49.236Z,367
2019-01-26T04:17:56.440Z,367
2019-01-26T04:19:03.659Z,370
2019-01-26T04:20:10.275Z,368
2019-01-26T04:21:17.484Z,367
2019-01-26T04:22:24.412Z,367
2019-01-26T04:23:31.614Z,367
2019-01-26T04:24:38.822Z,367
2019-01-26T04:25:46.020Z,366
2019-01-26T04:26:53.221Z,366
2019-01-26T04:28:00.454Z,366
2019-01-26T04:29:07.660Z,367
2019-01-26T04:30:14.862Z,366
2019-01-26T04:31:21.803Z,367
2019-01-26T04:32:29.007Z,367
2019-01-26T04:33:36.202Z,366
2019-01-26T04:34:43.395Z,366
2019-01-26T04:35:50.598Z,368
2019-01-26T04:36:57.818Z,367
2019-01-26T04:38:05.008Z,368
2019-01-26T04:39:12.197Z,367
2019-01-26T04:40:19.402Z,368
2019-01-26T04:41:26.326Z,367
2019-01-26T04:42:33.530Z,367
2019-01-26T04:43:40.724Z,366
2019-01-26T04:44:47.926Z,366
2019-01-26T04:45:54.579Z,367
2019-01-26T04:47:01.775Z,365
2019-01-26T04:48:08.964Z,365
2019-01-26T04:49:15.890Z,366
2019-01-26T04:50:23.090Z,365
2019-01-26T04:51:30.308Z,366
2019-01-26T04:52:37.247Z,366
2019-01-26T04:53:44.171Z,366
2019-01-26T04:54:50.834Z,366
2019-01-26T04:55:57.750Z,365
2019-01-26T04:57:04.948Z,366
2019-01-26T04:58:11.860Z,366
2019-01-26T04:59:19.064Z,366
2019-01-26T05:00:26.279Z,366
2019-01-26T05:01:33.477Z,365
2019-01-26T05:02:40.676Z,365
2019-01-26T05:03:47.919Z,365
2019-01-26T05:04:55.116Z,365
2019-01-26T05:06:02.320Z,366
2019-01-26T05:07:09.521Z,365
2019-01-26T05:08:16.447Z,365
2019-01-26T05:09:23.383Z,365
2019-01-26T05:10:30.309Z,364
2019-01-26T05:11:37.243Z,364
2019-01-26T05:12:44.440Z,365
2019-01-26T05:13:51.644Z,364
2019-01-26T05:14:58.843Z,364
2019-01-26T05:16:06.041Z,364
2019-01-26T05:17:13.250Z,364
2019-01-26T05:18:20.183Z,364
2019-01-26T05:19:27.649Z,364
2019-01-26T05:20:35.114Z,363
2019-01-26T05:21:41.768Z,363
2019-01-26T05:22:48.963Z,363
2019-01-26T05:23:55.887Z,363
2019-01-26T05:25:03.097Z,363
2019-01-26T05:26:10.312Z,362
2019-01-26T05:27:17.507Z,362
2019-01-26T05:28:24.437Z,362
2019-01-26T05:29:31.094Z,363
2019-01-26T05:30:38.022Z,362
2019-01-26T05:31:45.225Z,363
2019-01-26T05:32:52.155Z,363
2019-01-26T05:33:59.364Z,363
2019-01-26T05:35:06.583Z,363
2019-01-26T05:36:13.794Z,363
2019-01-26T05:37:20.991Z,363
2019-01-26T05:38:27.922Z,362
2019-01-26T05:39:34.839Z,362
2019-01-26T05:40:42.046Z,362
2019-01-26T05:41:49.238Z,362
2019-01-26T05:42:56.524Z,361
2019-01-26T05:44:03.729Z,360
2019-01-26T05:45:10.927Z,361
2019-01-26T05:46:18.149Z,360
2019-01-26T05:47:25.071Z,360
2019-01-26T05:48:32.287Z,361
2019-01-26T05:49:39.215Z,361
2019-01-26T05:50:46.416Z,361
2019-01-26T05:51:53.623Z,361
2019-01-26T05:53:00.830Z,361
2019-01-26T05:54:08.028Z,361
2019-01-26T05:55:14.682Z,361
2019-01-26T05:56:21.927Z,362
2019-01-26T05:57:28.863Z,361
2019-01-26T05:58:36.060Z,361
2019-01-26T05:59:42.978Z,361
2019-01-26T06:00:49.624Z,360
2019-01-26T06:01:56.824Z,360
2019-01-26T06:03:04.036Z,360
2019-01-26T06:04:11.252Z,359
2019-01-26T06:05:18.203Z,360
2019-01-26T06:06:25.423Z,359
2019-01-26T06:07:32.345Z,360
2019-01-26T06:08:39.270Z,360
2019-01-26T06:09:46.193Z,362
2019-01-26T06:10:53.403Z,360
2019-01-26T06:12:00.602Z,360
2019-01-26T06:13:07.524Z,360
2019-01-26T06:14:14.721Z,360
2019-01-26T06:15:21.949Z,360
2019-01-26T06:16:29.143Z,361
2019-01-26T06:17:36.345Z,362
2019-01-26T06:18:43.551Z,361
2019-01-26T06:19:50.763Z,361
2019-01-26T06:20:57.692Z,362
2019-01-26T06:22:04.900Z,362
2019-01-26T06:23:12.096Z,362
2019-01-26T06:24:19.314Z,362
2019-01-26T06:25:26.521Z,363
2019-01-26T06:26:33.728Z,362
2019-01-26T06:27:40.929Z,363
2019-01-26T06:28:47.867Z,363
2019-01-26T06:29:55.067Z,362
2019-01-26T06:31:02.276Z,363
2019-01-26T06:32:09.486Z,362
2019-01-26T06:33:16.686Z,362
2019-01-26T06:34:23.889Z,362
2019-01-26T06:35:30.824Z,362
2019-01-26T06:36:38.041Z,362
2019-01-26T06:37:45.236Z,362
2019-01-26T06:38:53.523Z,363
2019-01-26T06:40:00.750Z,363
2019-01-26T06:41:07.957Z,363
2019-01-26T06:42:15.156Z,363
2019-01-26T06:43:22.374Z,364
2019-01-26T06:44:29.575Z,366
2019-01-26T06:45:36.784Z,366
2019-01-26T06:46:43.427Z,368
2019-01-26T06:47:50.624Z,369
2019-01-26T06:48:57.555Z,371
2019-01-26T06:50:04.763Z,373
2019-01-26T06:51:11.965Z,376
2019-01-26T06:52:19.171Z,379
2019-01-26T06:53:26.421Z,381
2019-01-26T06:54:33.619Z,383
2019-01-26T06:55:40.842Z,385
2019-01-26T06:56:48.047Z,386
2019-01-26T06:57:55.179Z,389
2019-01-26T06:59:02.375Z,391
2019-01-26T07:00:09.583Z,394
2019-01-26T07:01:16.787Z,395
2019-01-26T07:02:23.996Z,397
2019-01-26T07:03:30.933Z,399
2019-01-26T07:04:38.156Z,400
2019-01-26T07:05:45.365Z,401
2019-01-26T07:06:52.563Z,402
2019-01-26T07:07:59.769Z,403
2019-01-26T07:09:06.971Z,404
2019-01-26T07:10:14.172Z,405
2019-01-26T07:11:21.094Z,405
2019-01-26T07:12:28.290Z,406
2019-01-26T07:13:35.230Z,406
2019-01-26T07:14:42.197Z,406
2019-01-26T07:15:49.396Z,405
2019-01-26T07:16:56.596Z,405
2019-01-26T07:18:10.403Z,406
2019-01-26T07:19:17.320Z,405
2019-01-26T07:20:24.551Z,405
2019-01-26T07:21:31.475Z,405
2019-01-26T07:22:38.708Z,404
2019-01-26T07:23:45.911Z,404
2019-01-26T07:24:53.343Z,403
2019-01-26T07:26:00.545Z,403
2019-01-26T07:27:07.771Z,403
2019-01-26T07:28:14.993Z,402
2019-01-26T07:29:22.217Z,402
2019-01-26T07:30:29.420Z,402
2019-01-26T07:31:36.629Z,403
2019-01-26T07:32:43.561Z,402
2019-01-26T07:33:50.768Z,402
2019-01-26T07:34:57.965Z,401
2019-01-26T07:36:05.168Z,400
2019-01-26T07:37:12.106Z,399
2019-01-26T07:38:19.312Z,397
2019-01-26T07:39:26.512Z,396
2019-01-26T07:40:33.458Z,395
2019-01-26T07:41:40.672Z,393
2019-01-26T07:42:47.897Z,388
2019-01-26T07:43:55.131Z,386
2019-01-26T07:45:01.507Z,384
2019-01-26T07:46:08.709Z,383
2019-01-26T07:47:15.627Z,381
2019-01-26T07:48:22.832Z,376
2019-01-26T07:49:29.761Z,375
2019-01-26T07:50:36.961Z,372
2019-01-26T07:51:44.169Z,370
2019-01-26T07:52:51.371Z,368
2019-01-26T07:53:58.569Z,367
2019-01-26T07:55:05.514Z,366
2019-01-26T07:56:12.724Z,364
2019-01-26T07:57:19.650Z,363
2019-01-26T07:58:26.882Z,362
2019-01-26T07:59:34.077Z,362
2019-01-26T08:00:41.273Z,360
2019-01-26T08:01:48.479Z,360
2019-01-26T08:02:55.686Z,359
2019-01-26T08:04:02.893Z,358
2019-01-26T08:05:09.833Z,359
2019-01-26T08:06:17.036Z,358
2019-01-26T08:07:23.994Z,358
2019-01-26T08:08:31.205Z,357
2019-01-26T08:09:38.406Z,358
2019-01-26T08:10:45.609Z,358
2019-01-26T08:11:52.821Z,357
2019-01-26T08:13:00.024Z,356
2019-01-26T08:14:06.960Z,355
2019-01-26T08:15:14.155Z,355
2019-01-26T08:16:20.808Z,354
2019-01-26T08:17:28.020Z,355
2019-01-26T08:18:35.220Z,353
2019-01-26T08:19:42.149Z,354
2019-01-26T08:20:49.353Z,356
2019-01-26T08:21:56.562Z,362
2019-01-26T08:23:03.796Z,364
2019-01-26T08:24:10.996Z,364
2019-01-26T08:25:18.214Z,366
2019-01-26T08:26:25.136Z,368
2019-01-26T08:27:32.071Z,370
2019-01-26T08:28:39.280Z,371
2019-01-26T08:29:46.487Z,371
2019-01-26T08:30:53.699Z,371
2019-01-26T08:32:00.912Z,367
2019-01-26T08:33:08.105Z,367
2019-01-26T08:34:15.329Z,366
2019-01-26T08:35:22.528Z,367
2019-01-26T08:36:29.518Z,368
2019-01-26T08:37:36.740Z,368
2019-01-26T08:38:43.950Z,368
2019-01-26T08:39:50.872Z,370
2019-01-26T08:40:58.074Z,371
2019-01-26T08:42:05.280Z,370
2019-01-26T08:43:12.196Z,372
2019-01-26T08:44:19.396Z,372
2019-01-26T08:45:26.598Z,372
2019-01-26T08:46:33.837Z,372
2019-01-26T08:47:40.746Z,372
2019-01-26T08:48:47.950Z,371
2019-01-26T08:49:54.620Z,372
2019-01-26T08:51:01.830Z,371
2019-01-26T08:52:08.767Z,370
2019-01-26T08:53:15.694Z,369
2019-01-26T08:54:22.893Z,370
2019-01-26T08:55:29.821Z,371
2019-01-26T08:56:36.759Z,371
2019-01-26T08:57:43.698Z,368
2019-01-26T08:58:50.636Z,366
2019-01-26T08:59:57.833Z,366
2019-01-26T09:01:04.784Z,366
2019-01-26T09:02:11.986Z,366
2019-01-26T09:03:19.194Z,367
2019-01-26T09:04:26.398Z,368
2019-01-26T09:05:33.333Z,369
2019-01-26T09:06:40.535Z,369
2019-01-26T09:07:47.730Z,369
2019-01-26T09:08:54.663Z,369
2019-01-26T09:10:01.602Z,369
2019-01-26T09:11:08.806Z,368
2019-01-26T09:12:15.451Z,367
2019-01-26T09:13:22.653Z,366
2019-01-26T09:14:29.865Z,365
2019-01-26T09:15:37.057Z,367
2019-01-26T09:16:44.254Z,366
2019-01-26T09:17:51.467Z,366
2019-01-26T09:18:58.678Z,365
2019-01-26T09:20:05.897Z,365
2019-01-26T09:21:13.106Z,365
2019-01-26T09:22:20.322Z,365
2019-01-26T09:23:27.512Z,365
2019-01-26T09:24:34.437Z,364
2019-01-26T09:25:41.372Z,363
2019-01-26T09:26:48.584Z,364
2019-01-26T09:27:55.823Z,363
2019-01-26T09:29:03.024Z,363
2019-01-26T09:30:10.248Z,363
2019-01-26T09:31:17.166Z,364
2019-01-26T09:32:24.368Z,365
2019-01-26T09:33:31.291Z,364
2019-01-26T09:34:38.493Z,365
2019-01-26T09:35:45.692Z,366
2019-01-26T09:36:52.896Z,366
2019-01-26T09:38:00.097Z,367
2019-01-26T09:39:07.299Z,368
2019-01-26T09:40:14.504Z,370
2019-01-26T09:41:21.446Z,369
2019-01-26T09:42:28.406Z,370
2019-01-26T09:43:35.609Z,372
2019-01-26T09:44:42.528Z,374
2019-01-26T09:45:49.450Z,374
2019-01-26T09:46:56.376Z,375
2019-01-26T09:48:03.580Z,377
2019-01-26T09:49:10.778Z,377
2019-01-26T09:50:18.000Z,376
2019-01-26T09:51:25.206Z,377
2019-01-26T09:52:32.173Z,378
2019-01-26T09:53:39.109Z,377
2019-01-26T09:54:46.328Z,378
2019-01-26T09:55:53.528Z,377
2019-01-26T09:57:00.728Z,375
2019-01-26T09:58:07.930Z,375
2019-01-26T09:59:15.138Z,374
2019-01-26T10:00:22.341Z,374
2019-01-26T10:01:29.270Z,371
2019-01-26T10:02:36.200Z,372
2019-01-26T10:03:43.403Z,371
2019-01-26T10:04:50.611Z,370
2019-01-26T10:05:57.818Z,371
2019-01-26T10:07:05.032Z,370
2019-01-26T10:08:11.977Z,371
2019-01-26T10:09:19.171Z,370
2019-01-26T10:10:26.379Z,370
2019-01-26T10:11:33.320Z,369
2019-01-26T10:12:40.533Z,370
2019-01-26T10:13:47.744Z,369
2019-01-26T10:14:54.953Z,370
2019-01-26T10:16:02.146Z,369
2019-01-26T10:17:09.360Z,369
2019-01-26T10:18:16.570Z,369
2019-01-26T10:19:23.806Z,369
2019-01-26T10:20:31.023Z,369
2019-01-26T10:21:37.961Z,368
2019-01-26T10:22:44.888Z,369
2019-01-26T10:23:52.093Z,369
2019-01-26T10:24:59.307Z,369
2019-01-26T10:26:06.512Z,369
2019-01-26T10:27:13.452Z,369
2019-01-26T10:28:20.670Z,368
2019-01-26T10:29:27.881Z,370
2019-01-26T10:30:34.821Z,369
2019-01-26T10:31:41.761Z,370
2019-01-26T10:32:48.982Z,370
2019-01-26T10:33:55.910Z,369
2019-01-26T10:35:03.117Z,369
2019-01-26T10:36:10.078Z,368
2019-01-26T10:37:17.271Z,369
2019-01-26T10:38:24.202Z,370
2019-01-26T10:39:31.133Z,370
2019-01-26T10:40:38.352Z,370
2019-01-26T10:41:45.285Z,372
2019-01-26T10:42:52.482Z,372
2019-01-26T10:43:59.684Z,372
2019-01-26T10:45:06.639Z,371
2019-01-26T10:46:13.562Z,372
2019-01-26T10:47:20.494Z,373
2019-01-26T10:48:27.421Z,373
2019-01-26T10:49:34.619Z,372
2019-01-26T10:50:41.826Z,373
2019-01-26T10:51:49.034Z,373
2019-01-26T10:52:56.243Z,373
2019-01-26T10:54:03.453Z,373
2019-01-26T10:55:10.408Z,372
2019-01-26T10:56:17.612Z,374
2019-01-26T10:57:24.540Z,374
2019-01-26T10:58:31.748Z,374
2019-01-26T10:59:38.970Z,374
2019-01-26T11:00:46.176Z,374
2019-01-26T11:01:53.399Z,374
2019-01-26T11:03:00.606Z,373
2019-01-26T11:04:07.833Z,375
2019-01-26T11:05:15.042Z,376
2019-01-26T11:06:22.485Z,377
2019-01-26T11:07:29.685Z,376
2019-01-26T11:08:37.257Z,376
2019-01-26T11:09:44.195Z,375
2019-01-26T11:10:51.141Z,377
2019-01-26T11:11:58.347Z,376
2019-01-26T11:13:05.565Z,377
2019-01-26T11:14:12.769Z,376
2019-01-26T11:15:19.998Z,376
2019-01-26T11:16:26.931Z,377
2019-01-26T11:17:34.133Z,376
2019-01-26T11:18:40.806Z,377
2019-01-26T11:19:47.743Z,377
2019-01-26T11:20:54.949Z,376
2019-01-26T11:22:02.169Z,377
2019-01-26T11:23:09.111Z,377
2019-01-26T11:24:16.336Z,377
2019-01-26T11:25:23.541Z,377
2019-01-26T11:26:30.793Z,376
2019-01-26T11:27:38.010Z,376
2019-01-26T11:28:45.233Z,377
2019-01-26T11:29:52.452Z,377
2019-01-26T11:30:59.386Z,376
2019-01-26T11:32:06.609Z,377
2019-01-26T11:33:13.829Z,376
2019-01-26T11:34:21.028Z,375
2019-01-26T11:35:27.981Z,373
2019-01-26T11:36:35.207Z,372
2019-01-26T11:37:42.474Z,373
2019-01-26T11:38:49.669Z,370
2019-01-26T11:39:56.612Z,369
2019-01-26T11:41:03.539Z,368
2019-01-26T11:42:10.493Z,368
2019-01-26T11:43:17.454Z,367
2019-01-26T11:44:24.675Z,366
2019-01-26T11:45:31.873Z,367
2019-01-26T11:46:39.090Z,367
2019-01-26T11:47:46.291Z,364
2019-01-26T11:48:53.503Z,364
2019-01-26T11:50:00.703Z,364
2019-01-26T11:51:07.938Z,364
2019-01-26T11:52:14.894Z,364
2019-01-26T11:53:22.118Z,362
2019-01-26T11:54:29.076Z,363
2019-01-26T11:55:36.273Z,365
2019-01-26T11:56:43.480Z,364
2019-01-26T11:57:50.683Z,364
2019-01-26T11:58:57.889Z,365
2019-01-26T12:00:05.104Z,364
2019-01-26T12:01:12.048Z,366
2019-01-26T12:02:19.263Z,365
2019-01-26T12:03:26.502Z,366
2019-01-26T12:04:33.721Z,365
2019-01-26T12:05:40.934Z,366
2019-01-26T12:06:48.125Z,365
2019-01-26T12:07:55.335Z,366
2019-01-26T12:09:02.546Z,367
2019-01-26T12:10:09.478Z,366
2019-01-26T12:11:16.679Z,367
2019-01-26T12:12:23.652Z,367
2019-01-26T12:13:30.881Z,366
2019-01-26T12:14:38.103Z,367
2019-01-26T12:15:45.330Z,366
2019-01-26T12:16:52.542Z,367
2019-01-26T12:17:59.757Z,366
2019-01-26T12:19:06.974Z,367
2019-01-26T12:20:14.176Z,366
2019-01-26T12:21:21.391Z,366
2019-01-26T12:22:28.611Z,365
2019-01-26T12:23:35.547Z,366
2019-01-26T12:24:42.478Z,366
2019-01-26T12:25:49.415Z,367
2019-01-26T12:26:56.629Z,365
2019-01-26T12:28:03.586Z,367
2019-01-26T12:29:10.787Z,367
2019-01-26T12:30:17.996Z,367
2019-01-26T12:31:25.205Z,366
2019-01-26T12:32:33.545Z,366
2019-01-26T12:33:40.475Z,366
2019-01-26T12:34:47.701Z,367
2019-01-26T12:35:54.909Z,366
2019-01-26T12:37:02.116Z,366
2019-01-26T12:38:09.314Z,365
2019-01-26T12:39:16.247Z,367
2019-01-26T12:40:23.453Z,367
2019-01-26T12:41:30.671Z,367
2019-01-26T12:42:37.878Z,367
2019-01-26T12:43:45.087Z,367
2019-01-26T12:44:52.027Z,367
2019-01-26T12:45:59.248Z,368
2019-01-26T12:47:06.179Z,367
2019-01-26T12:48:13.390Z,367
2019-01-26T12:49:20.319Z,367
2019-01-26T12:50:27.529Z,368
2019-01-26T12:51:34.460Z,369
2019-01-26T12:52:41.376Z,368
2019-01-26T12:53:48.592Z,369
2019-01-26T12:54:55.800Z,368
2019-01-26T12:56:03.005Z,368
2019-01-26T12:57:09.942Z,367
2019-01-26T12:58:16.883Z,369
2019-01-26T12:59:24.112Z,369
2019-01-26T13:00:31.321Z,368
2019-01-26T13:01:38.528Z,368
2019-01-26T13:02:45.736Z,368
2019-01-26T13:03:52.950Z,368
2019-01-26T13:05:00.187Z,368
2019-01-26T13:06:07.386Z,367
2019-01-26T13:07:14.594Z,368
2019-01-26T13:08:21.799Z,368
2019-01-26T13:09:28.726Z,368
2019-01-26T13:10:35.654Z,369
2019-01-26T13:11:42.860Z,369
2019-01-26T13:12:50.072Z,368
2019-01-26T13:13:57.284Z,368
2019-01-26T13:15:04.494Z,369
2019-01-26T13:16:11.696Z,370
2019-01-26T13:17:20.496Z,369
2019-01-26T13:18:27.714Z,369
2019-01-26T13:19:38.076Z,370
2019-01-26T13:20:45.281Z,369
2019-01-26T13:21:52.213Z,371
2019-01-26T13:22:59.428Z,369
2019-01-26T13:24:06.655Z,371
2019-01-26T13:25:13.872Z,371
2019-01-26T13:26:21.072Z,371
2019-01-26T13:27:28.014Z,370
2019-01-26T13:28:35.217Z,371
2019-01-26T13:29:42.443Z,371
2019-01-26T13:30:49.661Z,372
2019-01-26T13:31:56.858Z,372
2019-01-26T13:33:04.295Z,373
2019-01-26T13:34:11.506Z,373
2019-01-26T13:35:18.724Z,373
2019-01-26T13:36:25.928Z,374
2019-01-26T13:37:33.134Z,373
2019-01-26T13:38:40.351Z,376
2019-01-26T13:39:47.561Z,374
2019-01-26T13:40:54.777Z,375
2019-01-26T13:42:01.979Z,376
2019-01-26T13:43:09.190Z,376
2019-01-26T13:44:16.413Z,375
2019-01-26T13:45:23.349Z,375
2019-01-26T13:46:30.550Z,377
2019-01-26T13:47:38.918Z,377
2019-01-26T13:48:46.124Z,376
2019-01-26T13:49:53.342Z,377
2019-01-26T13:51:00.547Z,375
2019-01-26T13:52:07.757Z,376
2019-01-26T13:53:14.960Z,376
2019-01-26T13:54:21.895Z,376
2019-01-26T13:55:29.112Z,376
2019-01-26T13:56:36.036Z,376
2019-01-26T13:57:43.246Z,376
2019-01-26T13:58:50.619Z,376
2019-01-26T13:59:57.841Z,375
2019-01-26T14:01:05.037Z,376
2019-01-26T14:02:11.739Z,376
2019-01-26T14:03:18.671Z,376
2019-01-26T14:04:25.925Z,375
2019-01-26T14:05:33.120Z,376
2019-01-26T14:06:40.044Z,375
2019-01-26T14:07:47.254Z,375
2019-01-26T14:08:54.190Z,375
2019-01-26T14:10:01.417Z,376
2019-01-26T14:11:08.668Z,376
2019-01-26T14:12:15.334Z,375
2019-01-26T14:13:22.559Z,376
2019-01-26T14:14:29.498Z,376
2019-01-26T14:15:36.719Z,375
2019-01-26T14:16:43.659Z,375
2019-01-26T14:17:50.880Z,376
2019-01-26T14:18:57.842Z,376
2019-01-26T14:20:04.777Z,376
2019-01-26T14:21:11.982Z,376
2019-01-26T14:22:19.190Z,376
2019-01-26T14:23:26.130Z,376
2019-01-26T14:24:33.339Z,376
2019-01-26T14:25:40.020Z,376
2019-01-26T14:26:50.894Z,376
2019-01-26T14:27:58.117Z,376
2019-01-26T14:29:05.461Z,376
2019-01-26T14:30:12.686Z,376
2019-01-26T14:31:19.894Z,376
2019-01-26T14:32:27.104Z,377
2019-01-26T14:33:34.328Z,376
2019-01-26T14:34:41.310Z,376
2019-01-26T14:35:48.524Z,376
2019-01-26T14:36:55.464Z,376
2019-01-26T14:38:02.836Z,377
2019-01-26T14:39:09.822Z,376
2019-01-26T14:40:16.791Z,377
2019-01-26T14:41:23.459Z,378
2019-01-26T14:42:30.695Z,379
2019-01-26T14:43:37.906Z,378
2019-01-26T14:44:45.120Z,379
2019-01-26T14:45:52.332Z,378
2019-01-26T14:46:59.541Z,378
2019-01-26T14:48:06.745Z,379
2019-01-26T14:49:13.958Z,380
2019-01-26T14:50:21.171Z,380
2019-01-26T14:51:28.113Z,380
2019-01-26T14:52:35.322Z,380
2019-01-26T14:53:49.010Z,380
2019-01-26T14:54:56.225Z,380
2019-01-26T14:56:03.174Z,380
2019-01-26T14:57:10.396Z,378
2019-01-26T14:58:17.352Z,379
2019-01-26T14:59:24.787Z,378
2019-01-26T15:00:31.998Z,379
2019-01-26T15:01:38.939Z,382
2019-01-26T15:02:45.625Z,380
2019-01-26T15:03:52.855Z,381
2019-01-26T15:05:00.092Z,381
2019-01-26T15:06:07.408Z,383
2019-01-26T15:07:14.343Z,381
2019-01-26T15:08:21.551Z,381
2019-01-26T15:09:28.772Z,382
2019-01-26T15:10:35.985Z,383
2019-01-26T15:11:43.209Z,383
2019-01-26T15:12:50.440Z,383
2019-01-26T15:13:57.659Z,383
2019-01-26T15:15:05.086Z,382
2019-01-26T15:16:12.321Z,382
2019-01-26T15:17:19.770Z,381
2019-01-26T15:18:27.000Z,383
2019-01-26T15:19:34.213Z,382
2019-01-26T15:20:41.418Z,383
2019-01-26T15:21:48.373Z,382
2019-01-26T15:22:55.358Z,382
2019-01-26T15:24:02.307Z,382
2019-01-26T15:25:09.526Z,382